createdAt,value
2017-11-05T00:00:31.420Z,13.40
2017-11-05T00:03:02.473Z,13.40
2017-11-05T00:05:33.005Z,13.40
2017-11-05T00:08:05.214Z,13.50
2017-11-05T00:10:32.995Z,13.50
2017-11-05T00:15:55.640Z,13.60
2017-11-05T00:18:31.069Z,13.70
2017-11-05T00:21:01.445Z,13.70
2017-11-05T00:23:30.679Z,13.70
2017-11-05T00:26:01.879Z,13.70
2017-11-05T00:28:31.084Z,13.70
2017-11-05T00:31:01.640Z,13.70
2017-11-05T00:33:33.882Z,13.70
2017-11-05T00:36:06.172Z,13.80
2017-11-05T00:38:33.777Z,13.80
2017-11-05T00:41:03.064Z,13.80
2017-11-05T00:43:32.941Z,13.80
2017-11-05T00:46:03.647Z,13.70
2017-11-05T00:48:32.757Z,13.70
2017-11-05T00:51:01.594Z,13.70
2017-11-05T00:53:31.691Z,13.70
2017-11-05T00:56:01.483Z,13.80
2017-11-05T00:58:32.352Z,13.80
2017-11-05T01:01:01.837Z,13.70
2017-11-05T01:03:35.331Z,13.80
2017-11-05T01:06:03.848Z,13.80
2017-11-05T01:08:32.156Z,13.80
2017-11-05T01:11:00.594Z,13.70
2017-11-05T01:13:30.318Z,13.80
2017-11-05T01:15:59.883Z,13.80
2017-11-05T01:18:30.132Z,13.70
2017-11-05T01:21:04.216Z,13.70
2017-11-05T01:23:32.733Z,13.70
2017-11-05T01:26:04.789Z,13.60
2017-11-05T01:28:32.343Z,13.70
2017-11-05T01:31:29.432Z,13.70
2017-11-05T01:34:00.068Z,13.60
2017-11-05T01:36:31.218Z,13.60
2017-11-05T01:39:02.756Z,13.60
2017-11-05T01:41:30.917Z,13.60
2017-11-05T01:44:02.726Z,13.50
2017-11-05T01:46:33.129Z,13.50
2017-11-05T01:49:03.150Z,13.60
2017-11-05T01:51:32.226Z,13.50
2017-11-05T01:54:01.777Z,13.50
2017-11-05T01:56:33.037Z,13.40
2017-11-05T01:59:03.035Z,13.40
2017-11-05T02:01:32.220Z,13.40
2017-11-05T02:04:01.836Z,13.40
2017-11-05T02:06:32.036Z,13.30
2017-11-05T02:09:02.231Z,13.20
2017-11-05T02:11:32.075Z,13.10
2017-11-05T02:14:01.247Z,13.00
2017-11-05T02:16:30.999Z,12.90
2017-11-05T02:19:01.512Z,12.90
2017-11-05T02:21:31.087Z,12.90
2017-11-05T02:24:01.246Z,12.60
2017-11-05T02:26:31.788Z,12.70
2017-11-05T02:29:01.720Z,12.70
2017-11-05T02:31:32.118Z,12.70
2017-11-05T02:34:01.888Z,12.60
2017-11-05T02:36:31.264Z,12.60
2017-11-05T02:39:00.983Z,12.60
2017-11-05T02:41:32.065Z,12.60
2017-11-05T02:44:01.272Z,12.50
2017-11-05T02:46:32.581Z,12.50
2017-11-05T02:49:03.283Z,12.50
2017-11-05T02:51:32.431Z,12.50
2017-11-05T02:54:01.322Z,12.50
2017-11-05T02:56:31.992Z,12.40
2017-11-05T02:59:01.592Z,12.30
2017-11-05T03:01:31.249Z,12.30
2017-11-05T03:04:01.322Z,12.30
2017-11-05T03:06:32.139Z,12.30
2017-11-05T03:09:02.183Z,12.20
2017-11-05T03:11:33.901Z,12.20
2017-11-05T03:14:02.728Z,12.10
2017-11-05T03:16:32.667Z,12.10
2017-11-05T03:19:02.788Z,12.20
2017-11-05T03:21:32.705Z,12.20
2017-11-05T03:24:00.362Z,12.10
2017-11-05T03:26:28.835Z,12.20
2017-11-05T03:28:56.985Z,12.10
2017-11-05T03:31:25.529Z,12.20
2017-11-05T03:33:58.054Z,12.10
2017-11-05T03:36:26.462Z,12.10
2017-11-05T03:38:54.371Z,12.10
2017-11-05T03:41:27.760Z,12.10
2017-11-05T03:43:58.515Z,12.10
2017-11-05T03:46:30.008Z,12.10
2017-11-05T03:48:58.825Z,12.10
2017-11-05T03:51:30.427Z,12.20
2017-11-05T03:54:00.539Z,12.20
2017-11-05T03:56:32.437Z,12.20
2017-11-05T03:59:02.152Z,12.10
2017-11-05T04:01:29.720Z,12.00
2017-11-05T04:03:58.397Z,12.10
2017-11-05T04:06:28.466Z,12.10
2017-11-05T04:08:57.971Z,12.10
2017-11-05T04:11:28.101Z,12.10
2017-11-05T04:13:57.261Z,12.10
2017-11-05T04:16:27.255Z,12.10
2017-11-05T04:18:58.187Z,12.10
2017-11-05T04:21:28.390Z,12.10
2017-11-05T04:23:58.036Z,12.10
2017-11-05T04:26:26.543Z,12.10
2017-11-05T04:28:56.111Z,12.10
2017-11-05T04:31:24.605Z,12.10
2017-11-05T04:33:52.642Z,12.00
2017-11-05T04:36:22.316Z,12.00
2017-11-05T04:38:52.566Z,12.10
2017-11-05T04:41:25.796Z,12.10
2017-11-05T04:43:54.844Z,12.10
2017-11-05T04:46:25.041Z,12.00
2017-11-05T04:48:56.046Z,12.00
2017-11-05T04:51:26.779Z,12.10
2017-11-05T04:53:57.132Z,12.10
2017-11-05T04:56:26.525Z,12.10
2017-11-05T04:58:56.665Z,12.10
2017-11-05T05:01:26.175Z,12.10
2017-11-05T05:03:55.819Z,12.10
2017-11-05T05:06:23.767Z,12.10
2017-11-05T05:08:52.094Z,12.10
2017-11-05T05:11:20.681Z,12.00
2017-11-05T05:13:49.705Z,12.00
2017-11-05T05:16:22.477Z,12.00
2017-11-05T05:18:52.969Z,12.00
2017-11-05T05:21:24.446Z,12.00
2017-11-05T05:23:54.146Z,12.10
2017-11-05T05:26:24.425Z,12.10
2017-11-05T05:28:53.089Z,12.10
2017-11-05T05:31:26.108Z,12.10
2017-11-05T05:34:00.839Z,12.10
2017-11-05T05:36:31.797Z,12.10
2017-11-05T05:38:59.777Z,12.20
2017-11-05T05:41:29.303Z,12.20
2017-11-05T05:44:00.208Z,12.10
2017-11-05T05:46:29.319Z,12.10
2017-11-05T05:48:57.653Z,12.10
2017-11-05T05:51:26.969Z,12.20
2017-11-05T05:53:55.660Z,12.20
2017-11-05T05:56:24.282Z,12.20
2017-11-05T05:58:52.393Z,12.20
2017-11-05T06:01:25.152Z,12.20
2017-11-05T06:03:58.263Z,12.20
2017-11-05T06:06:27.666Z,12.10
2017-11-05T06:08:57.896Z,12.10
2017-11-05T06:11:26.730Z,12.10
2017-11-05T06:13:57.472Z,12.10
2017-11-05T06:16:28.146Z,12.20
2017-11-05T06:18:57.755Z,12.20
2017-11-05T06:21:28.843Z,12.10
2017-11-05T06:23:59.785Z,12.10
2017-11-05T06:26:29.215Z,12.20
2017-11-05T06:29:01.513Z,12.10
2017-11-05T06:31:30.099Z,12.10
2017-11-05T06:34:00.690Z,12.20
2017-11-05T06:36:30.479Z,12.10
2017-11-05T06:39:03.514Z,12.20
2017-11-05T06:41:34.531Z,12.10
2017-11-05T06:44:03.555Z,12.10
2017-11-05T06:46:32.668Z,12.10
2017-11-05T06:49:04.889Z,12.10
2017-11-05T06:51:34.942Z,12.10
2017-11-05T06:54:02.542Z,12.10
2017-11-05T06:56:30.660Z,12.10
2017-11-05T06:58:58.621Z,12.10
2017-11-05T07:01:27.433Z,12.10
2017-11-05T07:03:57.213Z,12.10
2017-11-05T07:06:26.202Z,12.00
2017-11-05T07:08:54.358Z,12.00
2017-11-05T07:11:22.241Z,12.00
2017-11-05T07:13:51.782Z,12.10
2017-11-05T07:16:20.741Z,12.10
2017-11-05T07:18:51.275Z,12.10
2017-11-05T07:21:22.755Z,12.10
2017-11-05T07:23:52.191Z,12.10
2017-11-05T07:26:23.544Z,12.20
2017-11-05T07:28:52.334Z,12.10
2017-11-05T07:31:22.068Z,12.10
2017-11-05T07:33:54.388Z,12.10
2017-11-05T07:36:23.208Z,12.10
2017-11-05T07:38:52.012Z,12.20
2017-11-05T07:41:24.224Z,12.20
2017-11-05T07:43:53.813Z,12.20
2017-11-05T07:46:23.291Z,12.10
2017-11-05T07:49:01.280Z,12.10
2017-11-05T07:51:31.360Z,12.20
2017-11-05T07:54:01.008Z,12.20
2017-11-05T07:56:30.247Z,12.10
2017-11-05T07:58:59.877Z,12.10
2017-11-05T08:01:31.635Z,12.10
2017-11-05T08:04:00.997Z,12.10
2017-11-05T08:06:32.187Z,12.10
2017-11-05T08:09:01.361Z,12.00
2017-11-05T08:11:30.532Z,11.90
2017-11-05T08:13:58.216Z,11.80
2017-11-05T08:16:28.804Z,11.60
2017-11-05T08:18:59.775Z,11.60
2017-11-05T08:21:29.690Z,11.40
2017-11-05T08:24:00.443Z,11.10
2017-11-05T08:26:30.468Z,11.00
2017-11-05T08:29:02.468Z,10.90
2017-11-05T08:31:31.001Z,10.70
2017-11-05T08:34:03.725Z,10.60
2017-11-05T08:36:38.549Z,10.40
2017-11-05T08:39:08.499Z,10.40
2017-11-05T08:41:36.588Z,10.30
2017-11-05T08:44:04.323Z,10.30
2017-11-05T08:46:35.828Z,10.30
2017-11-05T08:49:23.360Z,10.20
2017-11-05T08:51:55.371Z,9.90
2017-11-05T08:54:28.114Z,9.70
2017-11-05T08:57:01.318Z,9.70
2017-11-05T08:59:34.833Z,9.60
2017-11-05T09:02:02.607Z,9.40
2017-11-05T09:04:34.476Z,9.30
2017-11-05T09:07:12.389Z,9.20
2017-11-05T09:09:40.949Z,9.20
2017-11-05T09:12:09.240Z,9.20
2017-11-05T09:14:37.372Z,9.20
2017-11-05T09:17:06.549Z,9.30
2017-11-05T09:19:35.614Z,9.30
2017-11-05T09:22:03.152Z,9.30
2017-11-05T09:24:31.969Z,9.30
2017-11-05T09:27:00.472Z,9.20
2017-11-05T09:29:30.056Z,9.30
2017-11-05T09:32:00.728Z,9.30
2017-11-05T09:34:30.850Z,9.40
2017-11-05T09:36:59.076Z,9.30
2017-11-05T09:39:28.547Z,9.20
2017-11-05T09:41:59.120Z,9.20
2017-11-05T09:44:27.661Z,9.30
2017-11-05T09:46:57.798Z,9.30
2017-11-05T09:49:27.850Z,9.20
2017-11-05T09:51:56.972Z,9.20
2017-11-05T09:54:25.992Z,9.30
2017-11-05T09:56:55.171Z,9.40
2017-11-05T09:59:24.931Z,9.50
2017-11-05T10:01:52.893Z,9.60
2017-11-05T10:04:23.508Z,9.60
2017-11-05T10:06:56.380Z,9.60
2017-11-05T10:09:26.509Z,9.50
2017-11-05T10:11:56.661Z,9.60
2017-11-05T10:14:24.821Z,9.50
2017-11-05T10:16:53.810Z,9.50
2017-11-05T10:19:26.008Z,9.50
2017-11-05T10:21:56.083Z,9.50
2017-11-05T10:24:24.949Z,9.50
2017-11-05T10:27:00.732Z,9.60
2017-11-05T10:29:31.003Z,9.60
2017-11-05T10:32:00.030Z,9.70
2017-11-05T10:34:32.118Z,9.70
2017-11-05T10:37:01.258Z,9.60
2017-11-05T10:39:30.015Z,9.60
2017-11-05T10:42:05.855Z,9.60
2017-11-05T10:44:33.989Z,9.50
2017-11-05T10:47:02.852Z,9.50
2017-11-05T10:49:34.074Z,9.50
2017-11-05T10:52:03.463Z,9.50
2017-11-05T10:54:31.957Z,9.50
2017-11-05T10:56:59.860Z,9.50
2017-11-05T10:59:29.804Z,9.50
2017-11-05T11:01:58.683Z,9.30
2017-11-05T11:04:28.543Z,9.20
2017-11-05T11:07:01.415Z,9.20
2017-11-05T11:09:30.814Z,9.20
2017-11-05T11:12:05.136Z,9.30
2017-11-05T11:14:38.657Z,9.40
2017-11-05T11:17:09.168Z,9.40
2017-11-05T11:19:42.732Z,9.50
2017-11-05T11:22:11.228Z,9.40
2017-11-05T11:24:43.161Z,9.40
2017-11-05T11:27:12.361Z,9.40
2017-11-05T11:29:41.188Z,9.40
2017-11-05T11:32:11.517Z,9.30
2017-11-05T11:34:39.859Z,9.20
2017-11-05T11:37:07.396Z,9.20
2017-11-05T11:39:36.582Z,9.20
2017-11-05T11:42:06.148Z,9.20
2017-11-05T11:44:34.303Z,9.30
2017-11-05T11:47:06.784Z,9.30
2017-11-05T11:49:34.399Z,9.10
2017-11-05T11:52:02.711Z,9.10
2017-11-05T11:54:34.630Z,9.00
2017-11-05T11:57:02.173Z,9.10
2017-11-05T11:59:30.362Z,9.10
2017-11-05T12:01:59.190Z,9.00
2017-11-05T12:04:28.897Z,9.20
2017-11-05T12:06:57.244Z,9.20
2017-11-05T12:09:28.161Z,9.20
2017-11-05T12:11:58.885Z,9.30
2017-11-05T12:14:27.434Z,9.40
2017-11-05T12:16:55.783Z,9.40
2017-11-05T12:19:30.456Z,9.40
2017-11-05T12:21:59.449Z,9.50
2017-11-05T12:24:29.676Z,9.50
2017-11-05T12:26:59.636Z,9.50
2017-11-05T12:29:28.138Z,9.50
2017-11-05T12:31:59.736Z,9.60
2017-11-05T12:34:30.118Z,9.60
2017-11-05T12:36:59.605Z,9.70
2017-11-05T12:39:30.057Z,9.70
2017-11-05T12:41:59.320Z,9.70
2017-11-05T12:44:27.993Z,9.70
2017-11-05T12:46:57.123Z,9.80
2017-11-05T12:49:29.328Z,9.80
2017-11-05T12:51:59.525Z,9.80
2017-11-05T12:54:29.170Z,9.80
2017-11-05T12:56:56.748Z,9.80
2017-11-05T12:59:26.158Z,9.80
2017-11-05T13:01:58.230Z,9.80
2017-11-05T13:04:27.280Z,9.90
2017-11-05T13:06:55.294Z,9.80
2017-11-05T13:09:24.223Z,9.90
2017-11-05T13:11:52.080Z,9.90
2017-11-05T13:14:20.238Z,9.80
2017-11-05T13:16:51.428Z,9.80
2017-11-05T13:19:20.923Z,9.80
2017-11-05T13:21:51.371Z,9.80
2017-11-05T13:24:21.324Z,9.70
2017-11-05T13:26:50.795Z,9.70
2017-11-05T13:29:19.061Z,9.70
2017-11-05T13:31:48.575Z,9.70
2017-11-05T13:34:16.411Z,9.80
2017-11-05T13:36:45.409Z,9.80
2017-11-05T13:39:13.197Z,9.80
2017-11-05T13:41:41.664Z,9.90
2017-11-05T13:44:09.210Z,9.80
2017-11-05T13:46:37.552Z,9.90
2017-11-05T13:49:06.420Z,9.90
2017-11-05T13:51:34.011Z,9.90
2017-11-05T13:54:01.588Z,9.90
2017-11-05T13:56:29.269Z,9.90
2017-11-05T13:58:58.567Z,9.90
2017-11-05T14:01:28.925Z,9.90
2017-11-05T14:03:57.848Z,9.80
2017-11-05T14:06:26.023Z,9.80
2017-11-05T14:08:56.702Z,9.70
2017-11-05T14:11:26.934Z,9.70
2017-11-05T14:13:56.933Z,9.70
2017-11-05T14:16:25.908Z,9.70
2017-11-05T14:18:55.738Z,9.70
2017-11-05T14:21:24.114Z,9.70
2017-11-05T14:23:53.997Z,9.70
2017-11-05T14:26:23.753Z,9.60
2017-11-05T14:28:52.258Z,9.60
2017-11-05T14:31:23.152Z,9.60
2017-11-05T14:33:54.010Z,9.50
2017-11-05T14:36:24.751Z,9.40
2017-11-05T14:38:54.045Z,9.40
2017-11-05T14:41:24.220Z,9.30
2017-11-05T14:43:52.857Z,9.30
2017-11-05T14:46:39.604Z,9.10
2017-11-05T14:49:07.378Z,9.00
2017-11-05T14:51:36.321Z,9.00
2017-11-05T14:54:03.888Z,8.80
2017-11-05T14:56:31.478Z,8.80
2017-11-05T14:58:59.448Z,8.90
2017-11-05T15:01:28.502Z,8.80
2017-11-05T15:03:58.980Z,8.60
2017-11-05T15:06:26.947Z,8.60
2017-11-05T15:08:56.776Z,8.60
2017-11-05T15:11:26.033Z,8.40
2017-11-05T15:13:54.929Z,8.30
2017-11-05T15:16:24.184Z,8.20
2017-11-05T15:18:52.607Z,8.20
2017-11-05T15:21:20.841Z,8.20
2017-11-05T15:23:50.964Z,8.00
2017-11-05T15:26:20.744Z,7.90
2017-11-05T15:28:51.711Z,7.70
2017-11-05T15:31:22.064Z,7.60
2017-11-05T15:33:53.070Z,7.70
2017-11-05T15:36:25.854Z,7.70
2017-11-05T15:38:54.512Z,7.70
2017-11-05T15:41:24.688Z,7.60
2017-11-05T15:43:55.810Z,7.70
2017-11-05T15:46:24.336Z,7.70
2017-11-05T15:48:57.527Z,7.70
2017-11-05T15:51:28.334Z,7.60
2017-11-05T15:53:57.225Z,7.60
2017-11-05T15:56:25.739Z,7.60
2017-11-05T15:58:56.760Z,7.50
2017-11-05T16:01:31.262Z,7.50
2017-11-05T16:04:00.160Z,7.50
2017-11-05T16:06:29.078Z,7.40
2017-11-05T16:08:59.977Z,7.30
2017-11-05T16:11:34.841Z,7.30
2017-11-05T16:14:04.149Z,7.30
2017-11-05T16:16:33.439Z,7.40
2017-11-05T16:19:01.929Z,7.40
2017-11-05T16:21:30.603Z,7.30
2017-11-05T16:24:01.530Z,7.40
2017-11-05T16:26:29.994Z,7.30
2017-11-05T16:28:58.440Z,7.40
2017-11-05T16:31:31.054Z,7.30
2017-11-05T16:34:01.611Z,7.30
2017-11-05T16:36:29.876Z,7.30
2017-11-05T16:39:02.230Z,7.30
2017-11-05T16:41:30.752Z,7.30
2017-11-05T16:43:58.952Z,7.30
2017-11-05T16:46:33.989Z,7.30
2017-11-05T16:49:03.031Z,7.40
2017-11-05T16:51:33.388Z,7.30
2017-11-05T16:54:02.589Z,7.40
2017-11-05T16:56:34.453Z,7.40
2017-11-05T16:59:08.496Z,7.40
2017-11-05T17:01:43.100Z,7.30
2017-11-05T17:04:12.766Z,7.40
2017-11-05T17:06:42.614Z,7.40
2017-11-05T17:12:03.087Z,7.30
2017-11-05T17:14:31.930Z,7.30
2017-11-05T17:19:50.981Z,7.30
2017-11-05T17:22:25.071Z,7.30
2017-11-05T17:25:00.156Z,7.20
2017-11-05T17:30:10.468Z,7.20
2017-11-05T17:32:39.335Z,7.20
2017-11-05T17:35:15.085Z,7.20
2017-11-05T17:37:51.465Z,7.20
2017-11-05T17:40:23.175Z,7.20
2017-11-05T17:42:53.377Z,7.30
2017-11-05T17:45:22.608Z,7.30
2017-11-05T17:47:56.706Z,7.20
2017-11-05T17:50:27.159Z,7.30
2017-11-05T17:52:57.156Z,7.20
2017-11-05T17:55:28.936Z,7.20
2017-11-05T17:57:59.188Z,7.20
2017-11-05T18:00:31.153Z,7.30
2017-11-05T18:03:00.505Z,7.30
2017-11-05T18:05:31.396Z,7.30
2017-11-05T18:08:00.575Z,7.30
2017-11-05T18:10:33.791Z,7.30
2017-11-05T18:13:09.701Z,7.30
2017-11-05T18:15:40.371Z,7.30
2017-11-05T18:18:14.548Z,7.30
2017-11-05T18:23:31.373Z,7.50
2017-11-05T18:26:00.467Z,7.50
2017-11-05T18:28:29.812Z,7.60
2017-11-05T18:31:18.109Z,7.50
2017-11-05T18:33:50.041Z,7.60
2017-11-05T18:36:23.271Z,7.50
2017-11-05T18:38:53.541Z,7.50
2017-11-05T18:41:22.345Z,7.40
2017-11-05T18:43:52.065Z,7.40
2017-11-05T18:46:24.116Z,7.50
2017-11-05T18:48:59.917Z,7.40
2017-11-05T18:51:28.065Z,7.50
2017-11-05T18:53:58.192Z,7.50
2017-11-05T18:56:30.043Z,7.50
2017-11-05T18:59:02.648Z,7.60
2017-11-05T19:01:30.855Z,7.50
2017-11-05T19:03:59.363Z,7.60
2017-11-05T19:06:27.884Z,7.60
2017-11-05T19:08:55.655Z,7.60
2017-11-05T19:11:25.372Z,7.40
2017-11-05T19:14:02.269Z,7.20
2017-11-05T19:16:30.646Z,7.10
2017-11-05T19:19:00.340Z,7.00
2017-11-05T19:21:28.413Z,6.90
2017-11-05T19:23:57.169Z,6.90
2017-11-05T19:26:27.907Z,6.70
2017-11-05T19:28:55.710Z,6.70
2017-11-05T19:31:24.169Z,6.80
2017-11-05T19:33:53.207Z,6.80
2017-11-05T19:36:32.189Z,6.90
2017-11-05T19:39:01.609Z,6.70
2017-11-05T19:41:30.944Z,6.80
2017-11-05T19:44:00.154Z,6.80
2017-11-05T19:46:30.133Z,6.90
2017-11-05T19:48:58.040Z,6.90
2017-11-05T19:51:26.134Z,6.80
2017-11-05T19:53:56.089Z,6.90
2017-11-05T19:56:26.140Z,6.90
2017-11-05T19:58:54.580Z,6.90
2017-11-05T20:01:26.511Z,7.00
2017-11-05T20:03:55.367Z,7.00
2017-11-05T20:06:25.025Z,7.10
2017-11-05T20:08:57.195Z,7.10
2017-11-05T20:11:33.050Z,7.10
2017-11-05T20:14:02.010Z,7.10
2017-11-05T20:16:31.318Z,7.00
2017-11-05T20:19:03.212Z,7.00
2017-11-05T20:21:30.831Z,6.90
2017-11-05T20:23:59.552Z,7.00
2017-11-05T20:26:28.182Z,6.90
2017-11-05T20:28:57.625Z,6.90
2017-11-05T20:31:27.236Z,7.00
2017-11-05T20:33:55.337Z,6.90
2017-11-05T20:36:24.765Z,6.90
2017-11-05T20:38:53.891Z,6.80
2017-11-05T20:41:24.538Z,6.90
2017-11-05T20:43:54.488Z,6.80
2017-11-05T20:46:23.845Z,6.90
2017-11-05T20:48:53.362Z,6.70
2017-11-05T20:51:23.398Z,6.80
2017-11-05T20:53:54.187Z,6.70
2017-11-05T20:56:23.514Z,6.70
2017-11-05T20:58:54.179Z,6.80
2017-11-05T21:01:24.910Z,6.70
2017-11-05T21:03:53.336Z,6.70
2017-11-05T21:06:22.247Z,6.70
2017-11-05T21:08:53.069Z,6.70
2017-11-05T21:11:26.821Z,6.70
2017-11-05T21:13:59.733Z,6.70
2017-11-05T21:16:30.003Z,6.70
2017-11-05T21:19:00.970Z,6.70
2017-11-05T21:21:30.524Z,6.80
2017-11-05T21:24:02.438Z,6.70
2017-11-05T21:26:32.655Z,6.60
2017-11-05T21:29:02.187Z,6.50
2017-11-05T21:31:38.961Z,6.50
2017-11-05T21:34:09.485Z,6.50
2017-11-05T21:36:41.393Z,6.40
2017-11-05T21:39:13.273Z,6.50
2017-11-05T21:41:43.681Z,6.50
2017-11-05T21:44:12.664Z,6.50
2017-11-05T21:46:40.538Z,6.50
2017-11-05T21:49:08.742Z,6.60
2017-11-05T21:51:38.439Z,6.60
2017-11-05T21:54:08.224Z,6.60
2017-11-05T21:56:36.616Z,6.70
2017-11-05T21:59:05.914Z,6.60
2017-11-05T22:01:34.228Z,6.60
2017-11-05T22:04:02.609Z,6.50
2017-11-05T22:06:30.333Z,6.50
2017-11-05T22:08:59.142Z,6.50
2017-11-05T22:11:27.385Z,6.50
2017-11-05T22:13:55.997Z,6.40
2017-11-05T22:16:24.936Z,6.40
2017-11-05T22:18:54.987Z,6.40
2017-11-05T22:21:26.532Z,6.50
2017-11-05T22:23:57.716Z,6.50
2017-11-05T22:26:25.645Z,6.50
2017-11-05T22:28:57.706Z,6.50
2017-11-05T22:31:31.249Z,6.60
2017-11-05T22:34:02.422Z,6.60
2017-11-05T22:36:30.570Z,6.50
2017-11-05T22:39:06.287Z,6.50
2017-11-05T22:41:33.856Z,6.50
2017-11-05T22:44:01.439Z,6.50
2017-11-05T22:46:33.176Z,6.50
2017-11-05T22:49:06.585Z,6.60
2017-11-05T22:51:34.714Z,6.50
2017-11-05T22:54:03.915Z,6.50
2017-11-05T22:56:37.433Z,6.50
2017-11-05T22:59:07.825Z,6.50
2017-11-05T23:01:36.160Z,6.50
2017-11-05T23:04:06.692Z,6.50
2017-11-05T23:06:34.352Z,6.40
2017-11-05T23:09:04.449Z,6.40
2017-11-05T23:11:32.937Z,6.50
2017-11-05T23:14:03.420Z,6.50
2017-11-05T23:16:33.080Z,6.50
2017-11-05T23:19:02.101Z,6.50
2017-11-05T23:21:29.760Z,6.50
2017-11-05T23:23:59.916Z,6.50
2017-11-05T23:26:29.396Z,6.50
2017-11-05T23:29:00.605Z,6.60
2017-11-05T23:31:30.668Z,6.70
2017-11-05T23:34:00.759Z,6.80
2017-11-05T23:36:31.703Z,6.70
2017-11-05T23:39:02.920Z,6.70
2017-11-05T23:41:31.512Z,6.60
2017-11-05T23:44:01.804Z,6.50
2017-11-05T23:46:33.723Z,6.50
2017-11-05T23:49:01.259Z,6.50
2017-11-05T23:51:30.447Z,6.40
2017-11-05T23:53:59.425Z,6.40
2017-11-05T23:56:36.298Z,6.40
2017-11-05T23:59:04.737Z,6.40
